GRL1 BGSF-BGSF
Flight info
| Callsign | GRL1 |
|---|---|
| Flight time | N/A |
| Altitude | 2500 |
| Route | VFR |
| Aircraft | EC25/L-VGD/C |
Departure
| Time | 2026-04-21 07:47 |
|---|---|
| Airport | Kangerlussuaq International Airport (BGSF) |
Arrival
| Time | N/A |
|---|---|
| Airport | Kangerlussuaq International Airport (BGSF) |
| Time | Latitude | Longitude | Altitude | Speed | Heading |
|---|---|---|---|---|---|
| 2026-04-21 07:25 | 67.01150 | -50.69647 | 153 ft | 0 kts | 163° |
| 2026-04-21 07:36 | 67.01149 | -50.69647 | 153 ft | 1 kts | 173° |
| 2026-04-21 07:37 | 67.01149 | -50.69682 | 154 ft | 3 kts | 333° |
| 2026-04-21 07:37 | 67.01164 | -50.69704 | 154 ft | 2 kts | 329° |
| 2026-04-21 07:37 | 67.01172 | -50.69717 | 154 ft | 0 kts | 328° |
| 2026-04-21 07:44 | 67.01175 | -50.69720 | 170 ft | 2 kts | 271° |
| 2026-04-21 07:45 | 67.01096 | -50.70098 | 241 ft | 48 kts | 229° |
| 2026-04-21 07:45 | 67.00909 | -50.71137 | 314 ft | 78 kts | 231° |
| 2026-04-21 07:45 | 67.00582 | -50.72414 | 388 ft | 93 kts | 224° |
| 2026-04-21 07:45 | 67.00175 | -50.73816 | 413 ft | 106 kts | 225° |
| 2026-04-21 07:46 | 66.99728 | -50.75411 | 400 ft | 115 kts | 226° |
| 2026-04-21 07:46 | 66.99291 | -50.77172 | 401 ft | 119 kts | 234° |
| 2026-04-21 07:46 | 66.98925 | -50.79068 | 436 ft | 119 kts | 239° |
| 2026-04-21 07:46 | 66.98636 | -50.81001 | 548 ft | 114 kts | 243° |
| 2026-04-21 07:47 | 66.98341 | -50.82830 | 690 ft | 109 kts | 237° |
| 2026-04-21 07:47 | 66.97992 | -50.84506 | 817 ft | 105 kts | 232° |
| 2026-04-21 07:47 | 66.97616 | -50.86092 | 941 ft | 103 kts | 228° |
| 2026-04-21 07:47 | 66.97223 | -50.87603 | 1085 ft | 102 kts | 227° |
| 2026-04-21 07:48 | 66.96835 | -50.89175 | 1191 ft | 107 kts | 231° |
| 2026-04-21 07:48 | 66.96528 | -50.90873 | 1281 ft | 106 kts | 239° |
| 2026-04-21 07:48 | 66.96319 | -50.92673 | 1330 ft | 106 kts | 247° |
| 2026-04-21 07:48 | 66.96186 | -50.94497 | 1427 ft | 103 kts | 247° |
| 2026-04-21 07:49 | 66.95977 | -50.96242 | 1479 ft | 103 kts | 239° |
| 2026-04-21 07:49 | 66.95720 | -50.97963 | 1534 ft | 105 kts | 239° |
| 2026-04-21 07:49 | 66.95451 | -50.99674 | 1593 ft | 106 kts | 239° |
| 2026-04-21 07:49 | 66.95161 | -51.01411 | 1681 ft | 107 kts | 236° |
| 2026-04-21 07:50 | 66.94834 | -51.03111 | 1788 ft | 107 kts | 233° |
| 2026-04-21 07:50 | 66.94469 | -51.04768 | 1895 ft | 107 kts | 229° |
| 2026-04-21 07:50 | 66.94078 | -51.06364 | 1966 ft | 106 kts | 225° |
| 2026-04-21 07:50 | 66.93640 | -51.07937 | 1961 ft | 111 kts | 223° |
| 2026-04-21 07:51 | 66.93180 | -51.09509 | 2034 ft | 110 kts | 224° |
| 2026-04-21 07:51 | 66.92713 | -51.11046 | 2128 ft | 109 kts | 222° |
| 2026-04-21 07:51 | 66.92242 | -51.12549 | 2250 ft | 108 kts | 220° |
| 2026-04-21 07:51 | 66.91788 | -51.14067 | 2310 ft | 109 kts | 225° |
| 2026-04-21 07:52 | 66.91420 | -51.15748 | 2347 ft | 108 kts | 228° |
| 2026-04-21 07:52 | 66.91096 | -51.17438 | 2409 ft | 105 kts | 231° |
| 2026-04-21 07:52 | 66.90786 | -51.19144 | 2426 ft | 107 kts | 232° |
| 2026-04-21 07:52 | 66.90512 | -51.20893 | 2592 ft | 100 kts | 242° |
| 2026-04-21 07:53 | 66.90516 | -51.22678 | 2761 ft | 107 kts | 265° |
| 2026-04-21 07:53 | 66.90700 | -51.24596 | 2843 ft | 115 kts | 269° |
| 2026-04-21 07:53 | 66.90897 | -51.26620 | 2938 ft | 119 kts | 269° |
| 2026-04-21 07:53 | 66.91038 | -51.28709 | 2968 ft | 120 kts | 265° |
| 2026-04-21 07:54 | 66.91113 | -51.30831 | 2983 ft | 119 kts | 261° |
| 2026-04-21 07:54 | 66.91132 | -51.32914 | 3067 ft | 116 kts | 257° |
| 2026-04-21 07:54 | 66.91100 | -51.34956 | 3101 ft | 116 kts | 253° |
| 2026-04-21 07:54 | 66.91039 | -51.37037 | 3081 ft | 117 kts | 252° |
| 2026-04-21 07:55 | 66.90970 | -51.39051 | 3151 ft | 112 kts | 251° |
| 2026-04-21 07:55 | 66.90894 | -51.40982 | 3238 ft | 108 kts | 250° |
| 2026-04-21 07:55 | 66.90809 | -51.42847 | 3345 ft | 105 kts | 248° |
| 2026-04-21 07:55 | 66.90713 | -51.44658 | 3452 ft | 102 kts | 248° |
| 2026-04-21 07:56 | 66.90606 | -51.46423 | 3571 ft | 100 kts | 248° |
| 2026-04-21 07:56 | 66.90517 | -51.48293 | 3423 ft | 117 kts | 257° |
| 2026-04-21 07:56 | 66.90598 | -51.50314 | 3544 ft | 110 kts | 270° |
| 2026-04-21 07:56 | 66.90773 | -51.52188 | 3631 ft | 108 kts | 269° |
| 2026-04-21 07:57 | 66.90938 | -51.54039 | 3705 ft | 107 kts | 268° |
| 2026-04-21 07:57 | 66.91093 | -51.55877 | 3759 ft | 106 kts | 267° |
| 2026-04-21 07:57 | 66.91240 | -51.57701 | 3826 ft | 105 kts | 266° |
| 2026-04-21 07:57 | 66.91377 | -51.59508 | 3877 ft | 103 kts | 266° |
| 2026-04-21 07:58 | 66.91507 | -51.61304 | 3928 ft | 102 kts | 265° |
| 2026-04-21 07:58 | 66.91629 | -51.63082 | 3973 ft | 101 kts | 264° |
| 2026-04-21 07:58 | 66.91742 | -51.64845 | 4016 ft | 100 kts | 263° |
| 2026-04-21 07:58 | 66.91848 | -51.66598 | 4076 ft | 100 kts | 262° |
| 2026-04-21 07:59 | 66.91946 | -51.68338 | 4128 ft | 100 kts | 262° |
| 2026-04-21 07:59 | 66.92034 | -51.70107 | 4123 ft | 101 kts | 261° |
| 2026-04-21 07:59 | 66.92114 | -51.71897 | 4126 ft | 102 kts | 260° |
| 2026-04-21 07:59 | 66.92188 | -51.73702 | 4174 ft | 102 kts | 260° |
| 2026-04-21 08:00 | 66.92239 | -51.75534 | 4184 ft | 105 kts | 257° |
| 2026-04-21 08:00 | 66.92251 | -51.77413 | 4195 ft | 107 kts | 255° |
| 2026-04-21 08:00 | 66.92225 | -51.79320 | 4184 ft | 109 kts | 252° |
| 2026-04-21 08:00 | 66.92165 | -51.81270 | 4182 ft | 110 kts | 251° |
| 2026-04-21 08:01 | 66.92085 | -51.83166 | 4226 ft | 106 kts | 249° |
| 2026-04-21 08:01 | 66.91986 | -51.84997 | 4253 ft | 104 kts | 246° |
| 2026-04-21 08:01 | 66.91850 | -51.86871 | 4150 ft | 111 kts | 246° |
| 2026-04-21 08:02 | 66.91532 | -51.90688 | 3901 ft | 110 kts | 246° |
| 2026-04-21 08:02 | 66.91367 | -51.92578 | 3826 ft | 109 kts | 245° |
| 2026-04-21 08:02 | 66.91196 | -51.94456 | 3769 ft | 109 kts | 245° |
| 2026-04-21 08:02 | 66.91020 | -51.96324 | 3715 ft | 108 kts | 244° |
| 2026-04-21 08:03 | 66.90838 | -51.98180 | 3687 ft | 108 kts | 244° |
| 2026-04-21 08:03 | 66.90650 | -52.00027 | 3674 ft | 107 kts | 244° |
| 2026-04-21 08:03 | 66.90457 | -52.01863 | 3621 ft | 107 kts | 243° |
| 2026-04-21 08:03 | 66.90258 | -52.03683 | 3526 ft | 106 kts | 243° |
| 2026-04-21 08:04 | 66.90052 | -52.05494 | 3386 ft | 106 kts | 243° |
| 2026-04-21 08:04 | 66.89841 | -52.07295 | 3258 ft | 106 kts | 242° |
| 2026-04-21 08:04 | 66.89622 | -52.09094 | 3165 ft | 106 kts | 242° |
| 2026-04-21 08:04 | 66.89396 | -52.10887 | 3129 ft | 106 kts | 242° |
| 2026-04-21 08:05 | 66.89164 | -52.12671 | 3143 ft | 106 kts | 242° |
| 2026-04-21 08:05 | 66.88927 | -52.14443 | 3108 ft | 106 kts | 241° |
| 2026-04-21 08:05 | 66.88673 | -52.16166 | 3132 ft | 101 kts | 236° |
| 2026-04-21 08:05 | 66.88363 | -52.17705 | 3217 ft | 95 kts | 228° |
| 2026-04-21 08:06 | 66.87994 | -52.19054 | 3314 ft | 91 kts | 220° |
| 2026-04-21 08:06 | 66.87567 | -52.20216 | 3394 ft | 89 kts | 212° |
| 2026-04-21 08:06 | 66.87091 | -52.21188 | 3561 ft | 87 kts | 205° |
| 2026-04-21 08:06 | 66.86603 | -52.22156 | 3652 ft | 95 kts | 222° |
| 2026-04-21 08:07 | 66.86373 | -52.23747 | 3820 ft | 101 kts | 250° |
| 2026-04-21 08:07 | 66.86429 | -52.25669 | 3834 ft | 112 kts | 265° |
| 2026-04-21 08:07 | 66.86567 | -52.27636 | 3849 ft | 114 kts | 267° |
| 2026-04-21 08:07 | 66.86714 | -52.29590 | 3894 ft | 114 kts | 267° |
| 2026-04-21 08:08 | 66.86849 | -52.31575 | 3954 ft | 114 kts | 265° |
| 2026-04-21 08:08 | 66.86966 | -52.33580 | 3997 ft | 113 kts | 264° |
| 2026-04-21 08:08 | 66.87063 | -52.35554 | 4054 ft | 112 kts | 263° |
| 2026-04-21 08:08 | 66.87143 | -52.37492 | 4122 ft | 111 kts | 262° |
| 2026-04-21 08:09 | 66.87218 | -52.39468 | 4220 ft | 114 kts | 263° |
| 2026-04-21 08:09 | 66.87342 | -52.41462 | 4318 ft | 114 kts | 267° |
| 2026-04-21 08:09 | 66.87529 | -52.43463 | 4451 ft | 118 kts | 271° |
| 2026-04-21 08:09 | 66.87775 | -52.45412 | 4661 ft | 114 kts | 275° |
| 2026-04-21 08:10 | 66.88067 | -52.47248 | 4846 ft | 111 kts | 275° |
| 2026-04-21 08:10 | 66.88371 | -52.49033 | 4940 ft | 110 kts | 275° |
| 2026-04-21 08:10 | 66.88687 | -52.50816 | 4925 ft | 112 kts | 276° |
| 2026-04-21 08:10 | 66.89000 | -52.52651 | 4884 ft | 114 kts | 276° |
| 2026-04-21 08:11 | 66.89309 | -52.54528 | 4838 ft | 116 kts | 276° |
| 2026-04-21 08:11 | 66.89613 | -52.56428 | 4760 ft | 116 kts | 277° |
| 2026-04-21 08:11 | 66.89914 | -52.58359 | 4588 ft | 118 kts | 277° |
| 2026-04-21 08:11 | 66.90195 | -52.60337 | 4419 ft | 119 kts | 276° |
| 2026-04-21 08:12 | 66.90456 | -52.62349 | 4254 ft | 120 kts | 276° |
| 2026-04-21 08:12 | 66.90694 | -52.64394 | 4106 ft | 121 kts | 275° |
| 2026-04-21 08:12 | 66.90901 | -52.66485 | 3974 ft | 122 kts | 273° |
| 2026-04-21 08:12 | 66.91078 | -52.68607 | 3817 ft | 123 kts | 271° |
| 2026-04-21 08:13 | 66.91226 | -52.70752 | 3658 ft | 123 kts | 270° |
| 2026-04-21 08:13 | 66.91344 | -52.72880 | 3456 ft | 123 kts | 269° |
| 2026-04-21 08:13 | 66.91436 | -52.75042 | 3282 ft | 123 kts | 269° |
| 2026-04-21 08:13 | 66.91501 | -52.77210 | 3123 ft | 122 kts | 267° |
| 2026-04-21 08:14 | 66.91541 | -52.79372 | 2941 ft | 122 kts | 265° |
| 2026-04-21 08:14 | 66.91556 | -52.81532 | 2762 ft | 122 kts | 264° |
| 2026-04-21 08:14 | 66.91548 | -52.83686 | 2595 ft | 121 kts | 263° |
| 2026-04-21 08:14 | 66.91519 | -52.85830 | 2433 ft | 121 kts | 262° |
| 2026-04-21 08:15 | 66.91470 | -52.87969 | 2284 ft | 121 kts | 260° |
| 2026-04-21 08:15 | 66.91399 | -52.90094 | 2196 ft | 120 kts | 258° |
| 2026-04-21 08:15 | 66.91363 | -52.92218 | 2115 ft | 121 kts | 267° |
| 2026-04-21 08:15 | 66.91476 | -52.94334 | 2030 ft | 121 kts | 277° |
| 2026-04-21 08:16 | 66.91664 | -52.96387 | 1982 ft | 116 kts | 261° |
| 2026-04-21 08:16 | 66.91427 | -52.96180 | 1873 ft | 74 kts | 67° |
| 2026-04-21 08:16 | 66.91802 | -52.95279 | 1913 ft | 81 kts | 9° |
| 2026-04-21 08:16 | 66.92384 | -52.95472 | 1920 ft | 93 kts | 324° |
| 2026-04-21 08:17 | 66.92856 | -52.96758 | 1882 ft | 108 kts | 293° |
| 2026-04-21 08:17 | 66.93081 | -52.98627 | 1872 ft | 115 kts | 273° |
| 2026-04-21 08:17 | 66.93154 | -53.00678 | 1908 ft | 113 kts | 268° |
| 2026-04-21 08:17 | 66.93201 | -53.02664 | 1968 ft | 113 kts | 268° |
| 2026-04-21 08:18 | 66.93270 | -53.04678 | 1999 ft | 115 kts | 269° |
| 2026-04-21 08:18 | 66.93331 | -53.06712 | 2029 ft | 115 kts | 268° |
| 2026-04-21 08:18 | 66.93370 | -53.08721 | 2069 ft | 115 kts | 266° |
| 2026-04-21 08:18 | 66.93478 | -53.10748 | 2082 ft | 118 kts | 285° |
| 2026-04-21 08:19 | 66.94000 | -53.12348 | 2091 ft | 118 kts | 321° |
| 2026-04-21 08:19 | 66.94707 | -53.13227 | 2211 ft | 114 kts | 327° |
| 2026-04-21 08:19 | 66.95435 | -53.14217 | 2180 ft | 119 kts | 325° |
| 2026-04-21 08:19 | 66.96130 | -53.15300 | 2232 ft | 112 kts | 319° |
| 2026-04-21 08:20 | 66.96707 | -53.16528 | 2302 ft | 105 kts | 308° |
| 2026-04-21 08:20 | 66.97172 | -53.17914 | 2355 ft | 103 kts | 299° |
| 2026-04-21 08:20 | 66.97571 | -53.19449 | 2353 ft | 105 kts | 292° |
| 2026-04-21 08:20 | 66.97914 | -53.21103 | 2336 ft | 106 kts | 288° |
| 2026-04-21 08:21 | 66.98204 | -53.22852 | 2327 ft | 107 kts | 283° |
| 2026-04-21 08:21 | 66.98442 | -53.24670 | 2317 ft | 108 kts | 278° |
| 2026-04-21 08:21 | 66.98630 | -53.26540 | 2287 ft | 109 kts | 275° |
| 2026-04-21 08:21 | 66.98771 | -53.28443 | 2264 ft | 109 kts | 272° |
| 2026-04-21 08:22 | 66.98865 | -53.30372 | 2238 ft | 109 kts | 268° |
| 2026-04-21 08:22 | 66.98917 | -53.32314 | 2214 ft | 110 kts | 266° |
| 2026-04-21 08:22 | 66.98933 | -53.34265 | 2182 ft | 111 kts | 265° |
| 2026-04-21 08:22 | 66.98993 | -53.36196 | 2165 ft | 110 kts | 271° |
| 2026-04-21 08:23 | 66.99141 | -53.38140 | 2170 ft | 110 kts | 262° |
| 2026-04-21 08:23 | 66.99373 | -53.40088 | 2068 ft | 125 kts | 267° |
| 2026-04-21 08:23 | 66.99720 | -53.42260 | 1812 ft | 136 kts | 270° |
| 2026-04-21 08:23 | 66.99958 | -53.44449 | 1629 ft | 118 kts | 258° |
| 2026-04-21 08:24 | 66.99969 | -53.46400 | 1535 ft | 106 kts | 246° |
| 2026-04-21 08:24 | 66.99901 | -53.48258 | 1483 ft | 105 kts | 243° |
| 2026-04-21 08:24 | 66.99799 | -53.50093 | 1469 ft | 104 kts | 241° |
| 2026-04-21 08:24 | 66.99669 | -53.51895 | 1423 ft | 103 kts | 238° |
| 2026-04-21 08:25 | 66.99517 | -53.53663 | 1392 ft | 101 kts | 233° |
| 2026-04-21 08:25 | 66.99342 | -53.55396 | 1358 ft | 100 kts | 233° |
| 2026-04-21 08:25 | 66.99147 | -53.57107 | 1322 ft | 100 kts | 234° |
| 2026-04-21 08:25 | 66.98950 | -53.58829 | 1290 ft | 101 kts | 235° |
| 2026-04-21 08:26 | 66.98759 | -53.60563 | 1257 ft | 102 kts | 233° |
| 2026-04-21 08:26 | 66.98609 | -53.62358 | 1232 ft | 105 kts | 237° |
| 2026-04-21 08:26 | 66.98507 | -53.64189 | 1175 ft | 97 kts | 236° |
| 2026-04-21 08:26 | 66.98362 | -53.65723 | 1204 ft | 86 kts | 227° |
| 2026-04-21 08:27 | 66.98184 | -53.67181 | 1373 ft | 88 kts | 227° |
| 2026-04-21 08:27 | 66.97969 | -53.68620 | 1084 ft | 84 kts | 224° |
| 2026-04-21 08:27 | 66.97713 | -53.69770 | 1277 ft | 65 kts | 203° |
| 2026-04-21 08:27 | 66.97337 | -53.70128 | 1323 ft | 63 kts | 168° |
| 2026-04-21 08:28 | 66.96832 | -53.69726 | 1443 ft | 79 kts | 159° |
| 2026-04-21 08:28 | 66.96293 | -53.69289 | 1187 ft | 86 kts | 168° |
| 2026-04-21 08:28 | 66.95664 | -53.69282 | 1265 ft | 96 kts | 179° |
| 2026-04-21 08:28 | 66.94979 | -53.69622 | 1248 ft | 102 kts | 189° |
| 2026-04-21 08:29 | 66.94342 | -53.70368 | 1251 ft | 98 kts | 201° |
| 2026-04-21 08:29 | 66.93931 | -53.71704 | 1225 ft | 103 kts | 234° |
| 2026-04-21 08:29 | 66.94055 | -53.73561 | 1129 ft | 119 kts | 282° |
| 2026-04-21 08:29 | 66.94515 | -53.75359 | 814 ft | 120 kts | 290° |
| 2026-04-21 08:30 | 66.94967 | -53.76980 | 533 ft | 103 kts | 307° |
| 2026-04-21 08:30 | 66.95598 | -53.76915 | 494 ft | 90 kts | 66° |
| 2026-04-21 08:30 | 66.95546 | -53.75749 | 429 ft | 66 kts | 139° |
| 2026-04-21 08:30 | 66.95306 | -53.74959 | 298 ft | 44 kts | 132° |
| 2026-04-21 08:31 | 66.95268 | -53.74280 | 185 ft | 40 kts | 122° |
| 2026-04-21 08:31 | 66.95189 | -53.73551 | 140 ft | 41 kts | 121° |
| 2026-04-21 08:31 | 66.95149 | -53.73092 | 118 ft | 38 kts | 125° |
| 2026-04-21 08:31 | 66.95097 | -53.72539 | 106 ft | 25 kts | 127° |
| 2026-04-21 08:32 | 66.95078 | -53.72345 | 108 ft | 1 kts | 128° |
| 2026-04-21 08:32 | 66.95074 | -53.72334 | 104 ft | 0 kts | 130° |
| 2026-04-21 08:32 | 66.95071 | -53.72314 | 104 ft | 4 kts | 98° |
| 2026-04-21 08:33 | 66.95107 | -53.72259 | 102 ft | 7 kts | 13° |
| 2026-04-21 08:33 | 66.95165 | -53.72228 | 104 ft | 6 kts | 9° |
| 2026-04-21 08:33 | 66.95166 | -53.72193 | 104 ft | 0 kts | 168° |
| 2026-04-21 08:33 | 66.95165 | -53.72193 | 104 ft | 0 kts | 177° |
| 2026-04-21 08:34 | 66.95157 | -53.72202 | 103 ft | 2 kts | 219° |
| 2026-04-21 08:34 | 66.95156 | -53.72205 | 103 ft | 0 kts | 226° |